sensor_id;sensor_type;location;lat;lon;timestamp;pressure;altitude;pressure_sealevel;temperature;humidity
21504;BME280;10913;51.992;9.228;2022-10-18T00:02:09;101269.19;;;17.89;100.00
21504;BME280;10913;51.992;9.228;2022-10-18T00:04:35;101270.97;;;17.88;100.00
21504;BME280;10913;51.992;9.228;2022-10-18T00:07:00;101267.47;;;17.86;100.00
21504;BME280;10913;51.992;9.228;2022-10-18T00:09:26;101276.34;;;17.87;100.00
21504;BME280;10913;51.992;9.228;2022-10-18T00:11:52;101278.19;;;17.85;100.00
21504;BME280;10913;51.992;9.228;2022-10-18T00:14:17;101274.69;;;17.81;100.00
21504;BME280;10913;51.992;9.228;2022-10-18T00:16:43;101280.06;;;17.80;100.00
21504;BME280;10913;51.992;9.228;2022-10-18T00:19:08;101270.34;;;17.77;100.00
21504;BME280;10913;51.992;9.228;2022-10-18T00:21:34;101273.03;;;17.76;100.00
21504;BME280;10913;51.992;9.228;2022-10-18T00:23:59;101281.97;;;17.75;100.00
21504;BME280;10913;51.992;9.228;2022-10-18T00:26:26;101273.03;;;17.76;100.00
21504;BME280;10913;51.992;9.228;2022-10-18T00:28:55;101275.72;;;17.76;100.00
21504;BME280;10913;51.992;9.228;2022-10-18T00:31:23;101280.16;;;17.77;100.00
21504;BME280;10913;51.992;9.228;2022-10-18T00:33:51;101274.81;;;17.77;100.00
21504;BME280;10913;51.992;9.228;2022-10-18T00:36:17;101271.28;;;17.75;100.00
21504;BME280;10913;51.992;9.228;2022-10-18T00:38:43;101273.03;;;17.76;100.00
21504;BME280;10913;51.992;9.228;2022-10-18T00:41:10;101279.34;;;17.73;100.00
21504;BME280;10913;51.992;9.228;2022-10-18T00:46:21;101286.50;;;17.71;100.00
21504;BME280;10913;51.992;9.228;2022-10-18T00:48:47;101290.97;;;17.71;100.00
21504;BME280;10913;51.992;9.228;2022-10-18T00:51:14;101287.41;;;17.70;100.00
21504;BME280;10913;51.992;9.228;2022-10-18T00:53:40;101297.25;;;17.68;100.00
21504;BME280;10913;51.992;9.228;2022-10-18T00:56:06;101291.03;;;17.68;100.00
21504;BME280;10913;51.992;9.228;2022-10-18T00:58:32;101291.03;;;17.68;100.00
21504;BME280;10913;51.992;9.228;2022-10-18T01:00:58;101285.69;;;17.66;100.00
21504;BME280;10913;51.992;9.228;2022-10-18T01:03:23;101272.38;;;17.65;100.00
21504;BME280;10913;51.992;9.228;2022-10-18T01:05:49;101270.56;;;17.65;100.00
21504;BME280;10913;51.992;9.228;2022-10-18T01:21:33;101257.56;;;17.47;100.00
21504;BME280;10913;51.992;9.228;2022-10-18T01:32:01;101252.34;;;17.39;100.00
21504;BME280;10913;51.992;9.228;2022-10-18T01:34:31;101243.44;;;17.39;100.00
21504;BME280;10913;51.992;9.228;2022-10-18T01:37:00;101247.00;;;17.39;100.00
21504;BME280;10913;51.992;9.228;2022-10-18T01:39:30;101245.28;;;17.38;100.00
21504;BME280;10913;51.992;9.228;2022-10-18T01:41:58;101242.59;;;17.38;100.00
21504;BME280;10913;51.992;9.228;2022-10-18T01:44:27;101245.28;;;17.38;100.00
21504;BME280;10913;51.992;9.228;2022-10-18T01:46:55;101253.28;;;17.38;100.00
21504;BME280;10913;51.992;9.228;2022-10-18T01:49:21;101244.31;;;17.39;100.00
21504;BME280;10913;51.992;9.228;2022-10-18T01:51:48;101247.00;;;17.39;100.00
21504;BME280;10913;51.992;9.228;2022-10-18T01:54:17;101245.28;;;17.38;100.00
21504;BME280;10913;51.992;9.228;2022-10-18T02:10:09;101230.28;;;17.30;100.00
21504;BME280;10913;51.992;9.228;2022-10-18T02:12:40;101231.22;;;17.27;100.00
21504;BME280;10913;51.992;9.228;2022-10-18T02:15:07;101228.56;;;17.26;100.00
21504;BME280;10913;51.992;9.228;2022-10-18T02:17:34;101218.81;;;17.23;100.00
21504;BME280;10913;51.992;9.228;2022-10-18T02:20:00;101217.97;;;17.21;100.00
21504;BME280;10913;51.992;9.228;2022-10-18T02:22:29;101214.41;;;17.20;100.00
21504;BME280;10913;51.992;9.228;2022-10-18T02:24:58;101214.44;;;17.19;100.00
21504;BME280;10913;51.992;9.228;2022-10-18T02:27:26;101220.72;;;17.18;100.00
21504;BME280;10913;51.992;9.228;2022-10-18T02:29:52;101220.75;;;17.16;100.00
21504;BME280;10913;51.992;9.228;2022-10-18T02:32:48;101232.34;;;17.15;100.00
21504;BME280;10913;51.992;9.228;2022-10-18T02:37:48;101226.28;;;17.06;100.00
21504;BME280;10913;51.992;9.228;2022-10-18T02:40:14;101242.34;;;17.03;100.00
21504;BME280;10913;51.992;9.228;2022-10-18T02:42:52;101236.19;;;16.99;100.00
21504;BME280;10913;51.992;9.228;2022-10-18T02:45:18;101227.34;;;16.97;100.00
21504;BME280;10913;51.992;9.228;2022-10-18T02:47:44;101229.13;;;16.97;100.00
21504;BME280;10913;51.992;9.228;2022-10-18T02:50:09;101222.00;;;16.97;100.00
21504;BME280;10913;51.992;9.228;2022-10-18T02:52:35;101226.47;;;16.97;100.00
21504;BME280;10913;51.992;9.228;2022-10-18T02:55:00;101222.94;;;16.95;100.00
21504;BME280;10913;51.992;9.228;2022-10-18T02:57:26;101224.75;;;16.93;100.00
21504;BME280;10913;51.992;9.228;2022-10-18T02:59:52;101231.06;;;16.88;100.00
21504;BME280;10913;51.992;9.228;2022-10-18T03:02:17;101224.84;;;16.86;100.00
21504;BME280;10913;51.992;9.228;2022-10-18T03:04:42;101222.22;;;16.83;100.00
21504;BME280;10913;51.992;9.228;2022-10-18T03:07:08;101222.22;;;16.83;100.00
21504;BME280;10913;51.992;9.228;2022-10-18T03:09:33;101227.56;;;16.83;100.00
21504;BME280;10913;51.992;9.228;2022-10-18T03:11:58;101222.25;;;16.82;100.00
21504;BME280;10913;51.992;9.228;2022-10-18T03:14:24;101209.78;;;16.82;100.00
21504;BME280;10913;51.992;9.228;2022-10-18T03:16:49;101224.91;;;16.83;100.00
21504;BME280;10913;51.992;9.228;2022-10-18T03:19:15;101207.16;;;16.81;100.00
21504;BME280;10913;51.992;9.228;2022-10-18T03:21:40;101208.94;;;16.80;100.00
21504;BME280;10913;51.992;9.228;2022-10-18T03:24:05;101218.78;;;16.78;100.00
21504;BME280;10913;51.992;9.228;2022-10-18T03:26:31;101221.47;;;16.78;100.00
21504;BME280;10913;51.992;9.228;2022-10-18T03:28:56;101224.16;;;16.77;100.00
21504;BME280;10913;51.992;9.228;2022-10-18T03:31:22;101214.41;;;16.74;100.00
21504;BME280;10913;51.992;9.228;2022-10-18T03:33:47;101213.56;;;16.72;100.00
21504;BME280;10913;51.992;9.228;2022-10-18T03:36:12;101209.13;;;16.70;100.00
21504;BME280;10913;51.992;9.228;2022-10-18T03:38:38;101212.75;;;16.67;100.00
21504;BME280;10913;51.992;9.228;2022-10-18T03:41:03;101210.09;;;16.66;100.00
21504;BME280;10913;51.992;9.228;2022-10-18T03:43:29;101219.00;;;16.65;100.00
21504;BME280;10913;51.992;9.228;2022-10-18T03:45:54;101217.25;;;16.64;100.00
21504;BME280;10913;51.992;9.228;2022-10-18T03:48:20;101218.13;;;16.64;100.00
21504;BME280;10913;51.992;9.228;2022-10-18T03:50:45;101209.22;;;16.62;100.00
21504;BME280;10913;51.992;9.228;2022-10-18T03:53:11;101207.47;;;16.61;100.00
21504;BME280;10913;51.992;9.228;2022-10-18T03:55:37;101210.09;;;16.63;100.00
21504;BME280;10913;51.992;9.228;2022-10-18T03:58:02;101202.13;;;16.64;100.00
21504;BME280;10913;51.992;9.228;2022-10-18T04:00:28;101208.34;;;16.65;100.00
21504;BME280;10913;51.992;9.228;2022-10-18T04:02:53;101205.63;;;16.66;100.00
21504;BME280;10913;51.992;9.228;2022-10-18T04:05:19;101208.31;;;16.66;100.00
21504;BME280;10913;51.992;9.228;2022-10-18T04:07:44;101205.63;;;16.66;100.00
21504;BME280;10913;51.992;9.228;2022-10-18T04:10:10;101210.13;;;16.64;100.00
21504;BME280;10913;51.992;9.228;2022-10-18T04:12:35;101211.91;;;16.61;100.00
21504;BME280;10913;51.992;9.228;2022-10-18T04:15:01;101215.47;;;16.61;100.00
21504;BME280;10913;51.992;9.228;2022-10-18T04:17:26;101210.22;;;16.58;100.00
21504;BME280;10913;51.992;9.228;2022-10-18T04:19:52;101209.31;;;16.58;100.00
21504;BME280;10913;51.992;9.228;2022-10-18T04:22:17;101201.34;;;16.56;100.00
21504;BME280;10913;51.992;9.228;2022-10-18T04:24:42;101208.44;;;16.57;100.00
21504;BME280;10913;51.992;9.228;2022-10-18T04:27:08;101203.06;;;16.59;100.00
21504;BME280;10913;51.992;9.228;2022-10-18T04:29:33;101203.91;;;16.61;100.00
21504;BME280;10913;51.992;9.228;2022-10-18T04:31:59;101200.34;;;16.62;100.00
21504;BME280;10913;51.992;9.228;2022-10-18T04:34:25;101205.69;;;16.60;100.00
21504;BME280;10913;51.992;9.228;2022-10-18T04:36:50;101200.38;;;16.60;100.00
21504;BME280;10913;51.992;9.228;2022-10-18T04:39:16;101211.91;;;16.61;100.00
21504;BME280;10913;51.992;9.228;2022-10-18T04:41:41;101204.78;;;16.61;100.00
21504;BME280;10913;51.992;9.228;2022-10-18T04:44:08;101204.78;;;16.61;100.00
21504;BME280;10913;51.992;9.228;2022-10-18T04:46:33;101196.78;;;16.61;100.00
21504;BME280;10913;51.992;9.228;2022-10-18T04:48:59;101209.22;;;16.62;100.00
21504;BME280;10913;51.992;9.228;2022-10-18T04:51:27;101211.91;;;16.62;100.00
21504;BME280;10913;51.992;9.228;2022-10-18T04:53:52;101215.44;;;16.63;100.00
21504;BME280;10913;51.992;9.228;2022-10-18T04:56:18;101208.38;;;16.60;100.00
21504;BME280;10913;51.992;9.228;2022-10-18T04:58:43;101212.81;;;16.61;100.00
21504;BME280;10913;51.992;9.228;2022-10-18T05:01:09;101213.69;;;16.62;100.00
21504;BME280;10913;51.992;9.228;2022-10-18T05:03:34;101215.44;;;16.63;100.00
21504;BME280;10913;51.992;9.228;2022-10-18T05:06:00;101215.44;;;16.63;100.00
21504;BME280;10913;51.992;9.228;2022-10-18T05:08:25;101211.03;;;16.63;100.00
21504;BME280;10913;51.992;9.228;2022-10-18T05:10:50;101210.13;;;16.64;100.00
21504;BME280;10913;51.992;9.228;2022-10-18T05:13:16;101219.88;;;16.65;100.00
21504;BME280;10913;51.992;9.228;2022-10-18T05:15:42;101217.25;;;16.64;100.00
21504;BME280;10913;51.992;9.228;2022-10-18T05:18:07;101227.00;;;16.66;100.00
21504;BME280;10913;51.992;9.228;2022-10-18T05:20:32;101218.09;;;16.66;100.00
21504;BME280;10913;51.992;9.228;2022-10-18T05:22:58;101219.88;;;16.65;100.00
21504;BME280;10913;51.992;9.228;2022-10-18T05:25:23;101214.56;;;16.65;100.00
21504;BME280;10913;51.992;9.228;2022-10-18T05:27:49;101219.00;;;16.62;100.00
21504;BME280;10913;51.992;9.228;2022-10-18T05:30:14;101224.34;;;16.62;100.00
21504;BME280;10913;51.992;9.228;2022-10-18T05:32:40;101224.34;;;16.62;100.00
21504;BME280;10913;51.992;9.228;2022-10-18T05:35:05;101225.28;;;16.59;100.00
21504;BME280;10913;51.992;9.228;2022-10-18T05:37:31;101226.16;;;16.60;100.00
21504;BME280;10913;51.992;9.228;2022-10-18T05:39:57;101227.03;;;16.60;100.00
21504;BME280;10913;51.992;9.228;2022-10-18T05:42:22;101223.47;;;16.61;100.00
21504;BME280;10913;51.992;9.228;2022-10-18T05:44:47;101224.38;;;16.60;100.00
21504;BME280;10913;51.992;9.228;2022-10-18T05:47:13;101221.72;;;16.60;100.00
21504;BME280;10913;51.992;9.228;2022-10-18T05:49:38;101229.72;;;16.60;100.00
21504;BME280;10913;51.992;9.228;2022-10-18T05:52:04;101221.72;;;16.59;100.00
21504;BME280;10913;51.992;9.228;2022-10-18T05:54:29;101221.78;;;16.57;100.00
21504;BME280;10913;51.992;9.228;2022-10-18T05:56:54;101230.69;;;16.56;100.00
21504;BME280;10913;51.992;9.228;2022-10-18T05:59:20;101227.16;;;16.54;100.00
21504;BME280;10913;51.992;9.228;2022-10-18T06:01:45;101229.91;;;16.49;100.00
21504;BME280;10913;51.992;9.228;2022-10-18T06:04:10;101231.72;;;16.46;100.00
21504;BME280;10913;51.992;9.228;2022-10-18T06:06:37;101235.31;;;16.43;100.00
21504;BME280;10913;51.992;9.228;2022-10-18T06:09:03;101240.69;;;16.42;100.00
21504;BME280;10913;51.992;9.228;2022-10-18T06:11:29;101245.13;;;16.41;100.00
21504;BME280;10913;51.992;9.228;2022-10-18T06:13:55;101250.44;;;16.43;100.00
21504;BME280;10913;51.992;9.228;2022-10-18T06:16:22;101254.84;;;16.45;100.00
21504;BME280;10913;51.992;9.228;2022-10-18T06:18:50;101252.16;;;16.47;100.00
21504;BME280;10913;51.992;9.228;2022-10-18T06:21:16;101247.69;;;16.49;100.00
21504;BME280;10913;51.992;9.228;2022-10-18T06:23:42;101255.69;;;16.50;100.00
21504;BME280;10913;51.992;9.228;2022-10-18T06:26:10;101256.56;;;16.51;100.00
21504;BME280;10913;51.992;9.228;2022-10-18T06:28:36;101254.78;;;16.51;100.00
21504;BME280;10913;51.992;9.228;2022-10-18T06:31:03;101251.19;;;16.52;100.00
21504;BME280;10913;51.992;9.228;2022-10-18T06:33:33;101250.28;;;16.53;100.00
21504;BME280;10913;51.992;9.228;2022-10-18T06:38:30;101260.09;;;16.53;100.00
21504;BME280;10913;51.992;9.228;2022-10-18T06:40:56;101260.09;;;16.53;100.00
21504;BME280;10913;51.992;9.228;2022-10-18T06:43:22;101262.75;;;16.53;100.00
21504;BME280;10913;51.992;9.228;2022-10-18T06:45:49;101265.41;;;16.53;100.00
21504;BME280;10913;51.992;9.228;2022-10-18T06:48:15;101264.53;;;16.54;100.00
21504;BME280;10913;51.992;9.228;2022-10-18T06:50:41;101259.19;;;16.54;100.00
21504;BME280;10913;51.992;9.228;2022-10-18T06:53:06;101261.84;;;16.56;100.00
21504;BME280;10913;51.992;9.228;2022-10-18T06:55:33;101268.94;;;16.55;100.00
21504;BME280;10913;51.992;9.228;2022-10-18T06:57:59;101264.47;;;16.57;100.00
21504;BME280;10913;51.992;9.228;2022-10-18T07:00:25;101268.94;;;16.57;100.00
21504;BME280;10913;51.992;9.228;2022-10-18T07:02:50;101272.47;;;16.57;100.00
21504;BME280;10913;51.992;9.228;2022-10-18T07:05:15;101272.44;;;16.59;100.00
21504;BME280;10913;51.992;9.228;2022-10-18T07:07:41;101270.63;;;16.59;100.00
21504;BME280;10913;51.992;9.228;2022-10-18T07:10:07;101275.94;;;16.61;100.00
21504;BME280;10913;51.992;9.228;2022-10-18T07:12:32;101282.16;;;16.61;100.00
21504;BME280;10913;51.992;9.228;2022-10-18T07:14:58;101286.59;;;16.62;100.00
21504;BME280;10913;51.992;9.228;2022-10-18T07:17:23;101292.84;;;16.64;100.00
21504;BME280;10913;51.992;9.228;2022-10-18T07:19:49;101290.16;;;16.64;100.00
21504;BME280;10913;51.992;9.228;2022-10-18T07:22:14;101291.06;;;16.65;100.00
21504;BME280;10913;51.992;9.228;2022-10-18T07:24:39;101285.69;;;16.66;100.00
21504;BME280;10913;51.992;9.228;2022-10-18T07:27:05;101295.47;;;16.66;100.00
21504;BME280;10913;51.992;9.228;2022-10-18T07:29:30;101293.72;;;16.65;100.00
21504;BME280;10913;51.992;9.228;2022-10-18T07:31:56;101294.59;;;16.62;100.00
21504;BME280;10913;51.992;9.228;2022-10-18T07:34:22;101286.69;;;16.58;100.00
21504;BME280;10913;51.992;9.228;2022-10-18T07:36:47;101288.50;;;16.56;100.00
21504;BME280;10913;51.992;9.228;2022-10-18T07:39:12;101294.78;;;16.53;100.00
21504;BME280;10913;51.992;9.228;2022-10-18T07:41:38;101296.56;;;16.51;100.00
21504;BME280;10913;51.992;9.228;2022-10-18T07:44:04;101299.22;;;16.52;100.00
21504;BME280;10913;51.992;9.228;2022-10-18T07:46:30;101288.53;;;16.54;100.00
21504;BME280;10913;51.992;9.228;2022-10-18T07:48:55;101287.59;;;16.57;100.00
21504;BME280;10913;51.992;9.228;2022-10-18T07:51:22;101297.31;;;16.61;100.00
21504;BME280;10913;51.992;9.228;2022-10-18T07:53:47;101303.50;;;16.64;100.00
21504;BME280;10913;51.992;9.228;2022-10-18T07:56:15;101307.91;;;16.68;100.00
21504;BME280;10913;51.992;9.228;2022-10-18T07:58:51;101301.63;;;16.72;100.00
21504;BME280;10913;51.992;9.228;2022-10-18T08:01:18;101298.00;;;16.76;100.00
21504;BME280;10913;51.992;9.228;2022-10-18T08:03:44;101305.09;;;16.77;100.00
21504;BME280;10913;51.992;9.228;2022-10-18T08:06:12;101309.56;;;16.77;100.00
21504;BME280;10913;51.992;9.228;2022-10-18T08:08:39;101313.13;;;16.76;100.00
21504;BME280;10913;51.992;9.228;2022-10-18T08:11:08;101315.78;;;16.77;100.00
21504;BME280;10913;51.992;9.228;2022-10-18T08:13:33;101315.78;;;16.77;100.00
21504;BME280;10913;51.992;9.228;2022-10-18T08:16:01;101313.94;;;16.79;100.00
21504;BME280;10913;51.992;9.228;2022-10-18T08:18:27;101321.03;;;16.80;100.00
21504;BME280;10913;51.992;9.228;2022-10-18T08:20:52;101314.78;;;16.81;100.00
21504;BME280;10913;51.992;9.228;2022-10-18T08:23:17;101310.34;;;16.80;100.00
21504;BME280;10913;51.992;9.228;2022-10-18T08:25:43;101319.28;;;16.79;100.00
21504;BME280;10913;51.992;9.228;2022-10-18T08:28:08;101319.34;;;16.76;100.00
21504;BME280;10913;51.992;9.228;2022-10-18T08:30:34;101317.59;;;16.75;100.00
21504;BME280;10913;51.992;9.228;2022-10-18T08:33:01;101315.84;;;16.73;100.00
21504;BME280;10913;51.992;9.228;2022-10-18T08:35:26;101319.41;;;16.73;100.00
21504;BME280;10913;51.992;9.228;2022-10-18T08:37:51;101331.00;;;16.71;100.00
21504;BME280;10913;51.992;9.228;2022-10-18T08:40:17;101328.31;;;16.72;100.00
21504;BME280;10913;51.992;9.228;2022-10-18T08:43:23;101327.41;;;16.73;100.00
21504;BME280;10913;51.992;9.228;2022-10-18T08:45:52;101326.53;;;16.73;100.00
21504;BME280;10913;51.992;9.228;2022-10-18T08:48:41;101330.06;;;16.73;100.00
21504;BME280;10913;51.992;9.228;2022-10-18T08:51:17;101324.78;;;16.70;100.00
21504;BME280;10913;51.992;9.228;2022-10-18T08:54:03;101333.69;;;16.69;100.00
21504;BME280;10913;51.992;9.228;2022-10-18T08:56:29;101339.03;;;16.69;100.00
21504;BME280;10913;51.992;9.228;2022-10-18T08:58:56;101338.13;;;16.70;100.00
21504;BME280;10913;51.992;9.228;2022-10-18T09:07:05;101334.53;;;16.73;100.00
21504;BME280;10913;51.992;9.228;2022-10-18T09:15:50;101344.41;;;16.66;100.00
21504;BME280;10913;51.992;9.228;2022-10-18T09:26:17;101347.06;;;16.66;100.00
21504;BME280;10913;51.992;9.228;2022-10-18T09:34:10;101354.31;;;16.57;100.00
21504;BME280;10913;51.992;9.228;2022-10-18T09:36:38;101355.13;;;16.60;100.00
21504;BME280;10913;51.992;9.228;2022-10-18T09:39:12;101351.50;;;16.67;100.00
21504;BME280;10913;51.992;9.228;2022-10-18T09:42:00;101354.94;;;16.75;100.00
21504;BME280;10913;51.992;9.228;2022-10-18T09:44:50;101353.91;;;16.84;100.00
21504;BME280;10913;51.992;9.228;2022-10-18T09:47:22;101361.81;;;16.92;100.00
21504;BME280;10913;51.992;9.228;2022-10-18T09:49:53;101355.44;;;16.99;100.00
21504;BME280;10913;51.992;9.228;2022-10-18T09:53:06;101359.78;;;17.06;100.00
21504;BME280;10913;51.992;9.228;2022-10-18T09:55:37;101357.03;;;17.12;100.00
21504;BME280;10913;51.992;9.228;2022-10-18T09:58:05;101344.53;;;17.14;100.00
21504;BME280;10913;51.992;9.228;2022-10-18T10:00:34;101357.88;;;17.14;100.00
21504;BME280;10913;51.992;9.228;2022-10-18T10:03:09;101359.69;;;17.13;100.00
21504;BME280;10913;51.992;9.228;2022-10-18T10:05:36;101358.81;;;17.11;100.00
21504;BME280;10913;51.992;9.228;2022-10-18T10:08:01;101360.63;;;17.09;100.00
21504;BME280;10913;51.992;9.228;2022-10-18T10:10:29;101369.53;;;17.10;100.00
21504;BME280;10913;51.992;9.228;2022-10-18T10:13:24;101370.44;;;17.09;100.00
21504;BME280;10913;51.992;9.228;2022-10-18T10:15:53;101357.97;;;17.08;100.00
21504;BME280;10913;51.992;9.228;2022-10-18T10:18:28;101363.28;;;17.11;100.00
21504;BME280;10913;51.992;9.228;2022-10-18T10:21:00;101361.47;;;17.13;100.00
21504;BME280;10913;51.992;9.228;2022-10-18T10:23:50;101365.84;;;17.17;100.00
21504;BME280;10913;51.992;9.228;2022-10-18T10:26:35;101375.53;;;17.22;100.00
21504;BME280;10913;51.992;9.228;2022-10-18T10:29:03;101364.78;;;17.27;100.00
21504;BME280;10913;51.992;9.228;2022-10-18T10:36:30;101368.97;;;17.40;100.00
21504;BME280;10913;51.992;9.228;2022-10-18T10:39:12;101365.38;;;17.43;100.00
21504;BME280;10913;51.992;9.228;2022-10-18T10:41:40;101369.75;;;17.48;100.00
21504;BME280;10913;51.992;9.228;2022-10-18T10:44:14;101374.13;;;17.52;100.00
21504;BME280;10913;51.992;9.228;2022-10-18T10:46:39;101371.41;;;17.55;100.00
21504;BME280;10913;51.992;9.228;2022-10-18T10:49:05;101365.03;;;17.61;100.00
21504;BME280;10913;51.992;9.228;2022-10-18T10:51:36;101368.53;;;17.68;100.00
21504;BME280;10913;51.992;9.228;2022-10-18T10:54:03;101367.50;;;17.75;100.00
21504;BME280;10913;51.992;9.228;2022-10-18T10:56:32;101365.59;;;17.80;100.00
21504;BME280;10913;51.992;9.228;2022-10-18T10:59:08;101372.59;;;17.88;100.00
21504;BME280;10913;51.992;9.228;2022-10-18T11:01:37;101371.63;;;17.93;100.00
21504;BME280;10913;51.992;9.228;2022-10-18T11:04:27;101367.97;;;17.97;100.00
21504;BME280;10913;51.992;9.228;2022-10-18T11:09:59;101357.34;;;18.37;100.00
21504;BME280;10913;51.992;9.228;2022-10-18T11:20:37;101366.47;;;19.05;100.00
21504;BME280;10913;51.992;9.228;2022-10-18T11:23:06;101361.31;;;18.98;100.00
21504;BME280;10913;51.992;9.228;2022-10-18T11:31:08;101363.22;;;18.52;100.00
21504;BME280;10913;51.992;9.228;2022-10-18T11:36:11;101364.44;;;18.38;100.00
21504;BME280;10913;51.992;9.228;2022-10-18T11:38:52;101369.06;;;18.30;100.00
21504;BME280;10913;51.992;9.228;2022-10-18T11:44:00;101355.81;;;18.23;100.00
21504;BME280;10913;51.992;9.228;2022-10-18T11:54:48;101337.31;;;19.27;100.00
21504;BME280;10913;51.992;9.228;2022-10-18T12:05:27;101338.41;;;19.86;100.00
21504;BME280;10913;51.992;9.228;2022-10-18T12:08:14;101339.28;;;19.87;100.00
21504;BME280;10913;51.992;9.228;2022-10-18T12:10:44;101327.53;;;19.92;100.00
21504;BME280;10913;51.992;9.228;2022-10-18T12:13:32;101326.19;;;20.07;100.00
21504;BME280;10913;51.992;9.228;2022-10-18T12:16:01;101326.84;;;20.15;100.00
21504;BME280;10913;51.992;9.228;2022-10-18T12:18:29;101324.06;;;20.18;100.00
21504;BME280;10913;51.992;9.228;2022-10-18T12:20:57;101318.41;;;20.27;100.00
21504;BME280;10913;51.992;9.228;2022-10-18T12:26:03;101322.38;;;20.45;100.00
21504;BME280;10913;51.992;9.228;2022-10-18T12:33:48;101324.50;;;20.03;100.00
21504;BME280;10913;51.992;9.228;2022-10-18T12:38:58;101318.88;;;19.81;100.00
21504;BME280;10913;51.992;9.228;2022-10-18T12:41:30;101327.16;;;19.74;100.00
21504;BME280;10913;51.992;9.228;2022-10-18T12:44:06;101315.56;;;19.73;100.00
21504;BME280;10913;51.992;9.228;2022-10-18T12:46:50;101311.81;;;19.79;100.00
21504;BME280;10913;51.992;9.228;2022-10-18T12:49:30;101319.53;;;19.91;100.00
21504;BME280;10913;51.992;9.228;2022-10-18T12:52:18;101319.22;;;20.00;100.00
21504;BME280;10913;51.992;9.228;2022-10-18T12:55:01;101317.22;;;20.08;100.00
21504;BME280;10913;51.992;9.228;2022-10-18T13:18:49;101316.13;;;20.45;95.58
21504;BME280;10913;51.992;9.228;2022-10-18T13:21:40;101315.47;;;20.38;94.41
21504;BME280;10913;51.992;9.228;2022-10-18T13:31:58;101315.50;;;20.35;93.70
21504;BME280;10913;51.992;9.228;2022-10-18T13:34:30;101320.84;;;20.38;93.58
21504;BME280;10913;51.992;9.228;2022-10-18T13:37:18;101322.56;;;20.39;91.85
21504;BME280;10913;51.992;9.228;2022-10-18T13:39:45;101327.19;;;20.34;90.79
21504;BME280;10913;51.992;9.228;2022-10-18T13:44:41;101326.94;;;20.12;88.74
21504;BME280;10913;51.992;9.228;2022-10-18T13:47:15;101328.78;;;20.10;90.24
21504;BME280;10913;51.992;9.228;2022-10-18T13:50:05;101329.88;;;20.03;90.95
21504;BME280;10913;51.992;9.228;2022-10-18T14:06:08;101339.00;;;19.65;92.81
21504;BME280;10913;51.992;9.228;2022-10-18T14:16:58;101342.34;;;19.39;92.74
21504;BME280;10913;51.992;9.228;2022-10-18T14:19:28;101343.22;;;19.40;91.96
21504;BME280;10913;51.992;9.228;2022-10-18T14:22:03;101342.47;;;19.36;90.96
21504;BME280;10913;51.992;9.228;2022-10-18T14:24:31;101350.63;;;19.32;90.58
21504;BME280;10913;51.992;9.228;2022-10-18T14:27:27;101360.53;;;19.28;90.68
21504;BME280;10913;51.992;9.228;2022-10-18T14:32:42;101358.06;;;19.19;90.41
21504;BME280;10913;51.992;9.228;2022-10-18T14:35:23;101360.97;;;19.11;89.56
21504;BME280;10913;51.992;9.228;2022-10-18T14:37:51;101365.59;;;19.03;87.11
21504;BME280;10913;51.992;9.228;2022-10-18T14:43:13;101371.41;;;18.85;87.40
21504;BME280;10913;51.992;9.228;2022-10-18T14:45:40;101360.91;;;18.77;86.16
21504;BME280;10913;51.992;9.228;2022-10-18T14:48:21;101366.38;;;18.71;86.26
21504;BME280;10913;51.992;9.228;2022-10-18T14:50:54;101359.38;;;18.66;86.33
21504;BME280;10913;51.992;9.228;2022-10-18T14:53:28;101355.16;;;18.54;86.41
21504;BME280;10913;51.992;9.228;2022-10-18T14:56:01;101371.31;;;18.49;86.23
21504;BME280;10913;51.992;9.228;2022-10-18T14:58:30;101360.75;;;18.42;85.43
21504;BME280;10913;51.992;9.228;2022-10-18T15:00:57;101363.56;;;18.37;84.73
21504;BME280;10913;51.992;9.228;2022-10-18T15:03:23;101366.34;;;18.33;84.84
21504;BME280;10913;51.992;9.228;2022-10-18T15:06:02;101359.41;;;18.22;85.26
21504;BME280;10913;51.992;9.228;2022-10-18T15:08:39;101369.38;;;18.16;83.03
21504;BME280;10913;51.992;9.228;2022-10-18T15:11:06;101368.59;;;18.09;84.09
21504;BME280;10913;51.992;9.228;2022-10-18T15:13:34;101369.59;;;18.04;84.66
21504;BME280;10913;51.992;9.228;2022-10-18T15:16:02;101372.34;;;17.99;86.12
21504;BME280;10913;51.992;9.228;2022-10-18T15:18:28;101367.97;;;17.97;85.94
21504;BME280;10913;51.992;9.228;2022-10-18T15:21:29;101368.91;;;17.94;84.97
21504;BME280;10913;51.992;9.228;2022-10-18T15:24:19;101375.25;;;17.88;86.17
21504;BME280;10913;51.992;9.228;2022-10-18T15:26:45;101373.56;;;17.83;86.60
21504;BME280;10913;51.992;9.228;2022-10-18T15:29:18;101371.03;;;17.77;86.92
21504;BME280;10913;51.992;9.228;2022-10-18T15:31:45;101378.31;;;17.69;87.93
21504;BME280;10913;51.992;9.228;2022-10-18T15:34:24;101377.56;;;17.59;88.70
21504;BME280;10913;51.992;9.228;2022-10-18T15:36:53;101376.81;;;17.51;89.48
21504;BME280;10913;51.992;9.228;2022-10-18T15:39:23;101381.41;;;17.43;90.63
21504;BME280;10913;51.992;9.228;2022-10-18T15:41:57;101383.34;;;17.36;91.86
21504;BME280;10913;51.992;9.228;2022-10-18T15:44:34;101381.72;;;17.25;91.95
21504;BME280;10913;51.992;9.228;2022-10-18T15:54:55;101396.44;;;16.96;94.15
21504;BME280;10913;51.992;9.228;2022-10-18T15:57:21;101397.41;;;16.91;94.71
21504;BME280;10913;51.992;9.228;2022-10-18T15:59:52;101390.41;;;16.83;94.92